Time;durP1;ratioP1;P1;durP2;ratioP2;P2;SDS_P1;SDS_P2;PMS_P1;PMS_P2;Temp;Humidity;BMP_temperature;BMP_pressure;BME280_temperature;BME280_humidity;BME280_pressure;Samples;Min_cycle;Max_cycle;Signal;HPM_P1;HPM_P2
2022/01/16 00:01:02;;;;;;;8.88;5.38;;;;;;;-1.27;54.75;95683.16;5116643;27;20030;-81
2022/01/16 00:06:13;;;;;;;9.68;5.68;;;;;;;-1.41;57.50;95657.97;5115228;27;20569;-80
2022/01/16 00:08:39;;;;;;;9.95;5.55;;;;;;;-1.37;56.63;95651.91;5131606;27;20027;-80
2022/01/16 00:11:04;;;;;;;8.77;5.63;;;;;;;-1.38;56.02;95654.53;5131487;27;20031;-81
2022/01/16 00:13:29;;;;;;;10.48;5.63;;;;;;;-1.44;56.32;95647.84;5109289;28;20027;-81
2022/01/16 00:15:55;;;;;;;10.95;5.80;;;;;;;-1.51;57.87;95664.13;5116126;27;20473;-81
2022/01/16 00:18:24;;;;;;;9.88;5.82;;;;;;;-1.57;57.84;95672.75;5110075;28;20489;-81
2022/01/16 00:20:50;;;;;;;9.52;5.60;;;;;;;-1.48;58.47;95709.94;5113127;27;20035;-80
2022/01/16 00:23:23;;;;;;;8.52;5.72;;;;;;;-1.44;59.13;95726.03;5092035;28;20020;-81
2022/01/16 00:25:50;;;;;;;10.43;6.10;;;;;;;-1.45;59.23;95737.94;5097251;28;20024;-80
2022/01/16 00:28:16;;;;;;;10.70;6.00;;;;;;;-1.50;59.02;95737.19;5109773;28;20035;-79
2022/01/16 00:30:41;;;;;;;11.23;5.95;;;;;;;-1.54;59.52;95755.97;5111888;27;20053;-79
2022/01/16 00:33:07;;;;;;;11.18;6.50;;;;;;;-1.38;60.22;95775.16;5111366;27;20051;-80
2022/01/16 00:35:32;;;;;;;9.60;5.43;;;;;;;-1.25;60.22;95685.69;5113975;27;20037;-81
2022/01/16 00:37:58;;;;;;;11.65;6.03;;;;;;;-1.28;60.22;95670.44;5123221;27;20548;-81
2022/01/16 00:40:23;;;;;;;11.30;6.55;;;;;;;-1.38;60.71;95724.19;5126874;27;20386;-80
2022/01/16 00:42:49;;;;;;;14.00;8.43;;;;;;;-1.46;61.04;95666.59;5129150;27;20030;-80
2022/01/16 00:45:14;;;;;;;11.90;6.57;;;;;;;-1.46;61.42;95590.13;5114018;27;20098;-81
2022/01/16 00:47:40;;;;;;;11.30;6.60;;;;;;;-1.44;60.45;95624.91;5141089;27;20027;-81
2022/01/16 00:50:06;;;;;;;11.55;6.55;;;;;;;-1.46;60.98;95593.50;5129953;27;20023;-81
2022/01/16 00:52:31;;;;;;;10.20;5.93;;;;;;;-1.55;60.76;95530.03;5128628;27;20039;-80
2022/01/16 00:55:02;;;;;;;11.23;6.97;;;;;;;-1.50;61.18;95578.34;5129397;27;20030;-80
2022/01/16 00:57:28;;;;;;;10.60;6.90;;;;;;;-1.61;58.92;95551.41;5129855;27;20107;-80
2022/01/16 00:59:53;;;;;;;10.38;6.10;;;;;;;-1.62;59.42;95559.06;5112112;28;20454;-80
2022/01/16 01:02:19;;;;;;;10.02;5.63;;;;;;;-1.70;59.75;95609.34;5129177;28;20035;-80
2022/01/16 01:04:47;;;;;;;18.48;9.40;;;;;;;-1.76;59.49;95635.81;5114152;28;20051;-80
2022/01/16 01:07:13;;;;;;;15.52;8.45;;;;;;;-1.76;59.86;95638.34;5110252;28;20104;-80
2022/01/16 01:09:38;;;;;;;10.85;6.25;;;;;;;-1.79;59.46;95625.69;5108880;28;20098;-80
2022/01/16 01:12:06;;;;;;;9.70;5.47;;;;;;;-1.90;59.25;95620.00;5076737;28;20452;-80
2022/01/16 01:14:40;;;;;;;8.70;5.28;;;;;;;-1.95;59.14;95647.25;5119514;28;20447;-80
2022/01/16 01:17:08;;;;;;;9.60;5.78;;;;;;;-1.82;60.99;95626.59;5115949;28;20381;-79
2022/01/16 01:19:35;;;;;;;10.65;5.43;;;;;;;-1.90;60.52;95614.91;5131055;28;20023;-79
2022/01/16 01:22:06;;;;;;;9.25;5.65;;;;;;;-1.92;61.31;95622.59;5101415;28;20032;-80
2022/01/16 01:24:34;;;;;;;9.15;5.35;;;;;;;-1.89;61.08;95604.69;5094212;28;20028;-80
2022/01/16 01:29:28;;;;;;;9.02;5.22;;;;;;;-1.83;59.09;95644.47;5094149;28;20084;-80
2022/01/16 01:31:54;;;;;;;7.88;4.95;;;;;;;-1.95;59.51;95634.53;5114448;27;20027;-80
2022/01/16 01:34:19;;;;;;;14.48;6.65;;;;;;;-1.95;60.11;95640.47;5134839;27;20034;-80
2022/01/16 01:36:48;;;;;;;9.90;5.70;;;;;;;-1.95;60.73;95648.13;5134991;27;20536;-80
2022/01/16 01:39:15;;;;;;;12.18;6.43;;;;;;;-1.99;61.11;95638.84;5114394;27;20438;-80
2022/01/16 01:41:40;;;;;;;12.15;7.15;;;;;;;-1.94;61.37;95659.97;5097669;28;20477;-80
2022/01/16 01:52:17;;;;;;;9.98;5.90;;;;;;;-2.20;62.71;95698.69;5115981;28;20077;-80
2022/01/16 01:54:43;;;;;;;9.73;5.32;;;;;;;-2.18;61.04;95660.47;5114389;28;20481;-80
2022/01/16 01:57:08;;;;;;;9.35;5.13;;;;;;;-2.13;60.59;95679.03;5113916;28;20537;-80
2022/01/16 01:59:34;;;;;;;11.10;6.18;;;;;;;-2.28;61.03;95670.84;5097117;28;20046;-80
2022/01/16 02:02:00;;;;;;;9.85;5.20;;;;;;;-2.20;61.27;95669.84;5113745;28;20032;-80
2022/01/16 02:04:25;;;;;;;14.55;6.55;;;;;;;-2.29;61.32;95679.31;5131774;27;20043;-81
2022/01/16 02:06:50;;;;;;;9.55;5.68;;;;;;;-2.41;61.77;95671.94;5123280;27;20032;-81
2022/01/16 02:09:16;;;;;;;10.48;5.35;;;;;;;-2.42;60.94;95688.06;5114685;28;20031;-81
2022/01/16 02:11:41;;;;;;;12.13;5.85;;;;;;;-2.37;61.29;95701.53;5115353;28;20032;-80
2022/01/16 02:14:26;;;;;;;11.07;4.95;;;;;;;-2.38;60.70;95692.22;5079736;28;20404;-81
2022/01/16 02:28:20;;;;;;;9.02;5.13;;;;;;;-2.79;61.39;95675.97;5114892;28;20043;-82
2022/01/16 02:36:07;;;;;;;7.35;4.55;;;;;;;-2.96;61.65;95655.94;5113649;28;20044;-80
2022/01/16 02:38:32;;;;;;;7.15;4.00;;;;;;;-3.01;62.30;95651.78;5096215;28;20110;-80
2022/01/16 02:41:02;;;;;;;10.13;4.68;;;;;;;-2.95;62.08;95662.72;5113271;28;20047;-80
2022/01/16 02:43:33;;;;;;;7.20;4.57;;;;;;;-3.07;62.05;95632.38;5112782;27;20114;-80
2022/01/16 02:47:00;;;;;;;7.50;4.60;;;;;;;-2.85;62.97;95668.47;5113171;28;20031;-80
2022/01/16 02:48:54;;;;;;;7.38;4.55;;;;;;;-2.84;63.17;95675.25;5108612;28;20046;-81
2022/01/16 02:51:25;;;;;;;7.28;4.50;;;;;;;-2.94;62.96;95653.38;5125003;27;20027;-81
2022/01/16 02:53:51;;;;;;;9.18;5.35;;;;;;;-3.00;63.48;95671.28;5099161;27;20492;-81
2022/01/16 02:56:17;;;;;;;19.17;11.38;;;;;;;-2.99;63.93;95667.84;5099353;27;20046;-80
2022/01/16 02:58:42;;;;;;;22.77;13.23;;;;;;;-3.02;63.32;95661.13;5132930;27;20484;-81
2022/01/16 03:01:08;;;;;;;21.85;12.52;;;;;;;-3.06;64.23;95668.84;5116418;27;20046;-80
2022/01/16 03:03:33;;;;;;;18.27;11.45;;;;;;;-3.11;64.18;95670.63;5133196;27;20094;-80
2022/01/16 03:05:59;;;;;;;18.77;9.48;;;;;;;-3.10;64.01;95669.75;5099100;27;20517;-80
2022/01/16 03:08:24;;;;;;;16.50;9.23;;;;;;;-3.18;64.74;95673.22;5107457;28;20550;-80
2022/01/16 03:11:07;;;;;;;12.43;7.40;;;;;;;-3.17;64.72;95669.84;5112772;28;20451;-81
2022/01/16 03:13:33;;;;;;;16.50;8.52;;;;;;;-3.31;64.39;95669.22;5113934;28;20030;-81
2022/01/16 03:15:59;;;;;;;10.77;6.28;;;;;;;-3.35;65.58;95670.13;5112151;28;20036;-80
2022/01/16 03:23:33;;;;;;;7.55;5.55;;;;;;;-3.45;66.16;95677.03;5112642;28;20030;-80
2022/01/16 03:25:59;;;;;;;8.98;5.28;;;;;;;-3.52;66.54;95677.16;5095384;28;20036;-80
2022/01/16 03:28:25;;;;;;;10.32;5.97;;;;;;;-3.56;66.59;95665.38;5114149;27;20060;-80
2022/01/16 03:30:51;;;;;;;9.68;6.50;;;;;;;-3.51;67.50;95672.06;5115567;27;20031;-80
2022/01/16 03:33:17;;;;;;;10.63;7.50;;;;;;;-3.46;67.85;95672.81;5132838;27;20027;-80
2022/01/16 03:35:43;;;;;;;11.85;6.93;;;;;;;-3.40;68.49;95677.81;5115167;27;20047;-80
2022/01/16 03:38:08;;;;;;;11.10;6.97;;;;;;;-3.37;69.35;95674.41;5115369;27;20449;-80
2022/01/16 03:40:34;;;;;;;12.70;7.57;;;;;;;-3.39;69.46;95668.50;5115598;27;20034;-80
2022/01/16 03:43:09;;;;;;;13.85;7.38;;;;;;;-3.27;69.66;95675.91;5115430;27;20042;-80
2022/01/16 03:45:35;;;;;;;11.43;7.60;;;;;;;-3.20;70.46;95677.53;5114906;27;20489;-81
2022/01/16 03:48:00;;;;;;;13.32;7.60;;;;;;;-3.06;70.43;95686.63;5115074;27;20042;-79
2022/01/16 03:50:26;;;;;;;12.60;7.45;;;;;;;-2.93;71.09;95685.56;5133661;27;20473;-80
2022/01/16 03:52:52;;;;;;;14.68;8.32;;;;;;;-2.98;71.03;95672.94;5127680;27;20047;-79
2022/01/16 03:55:17;;;;;;;13.02;8.60;;;;;;;-2.73;70.74;95698.78;5093541;28;20078;-80
2022/01/16 03:57:43;;;;;;;14.63;9.18;;;;;;;-2.64;69.93;95691.88;5112541;28;20024;-79
2022/01/16 04:00:09;;;;;;;12.15;7.95;;;;;;;-2.58;69.42;95699.38;5112886;28;20485;-80
2022/01/16 04:02:34;;;;;;;12.63;7.72;;;;;;;-2.55;69.56;95694.25;5113350;28;20633;-79
2022/01/16 04:04:59;;;;;;;13.70;7.78;;;;;;;-2.46;69.81;95691.53;5084001;28;20105;-80
2022/01/16 04:07:30;;;;;;;12.48;8.15;;;;;;;-2.48;70.18;95683.06;5111598;28;20039;-80
2022/01/16 04:09:56;;;;;;;12.48;7.85;;;;;;;-2.31;70.28;95713.34;5111627;28;20038;-79
2022/01/16 04:12:23;;;;;;;13.63;8.15;;;;;;;-2.29;70.21;95714.13;5094394;28;20028;-79
2022/01/16 04:17:19;;;;;;;10.63;7.03;;;;;;;-2.21;69.22;95706.34;5094371;28;20040;-80
2022/01/16 04:19:44;;;;;;;12.68;7.47;;;;;;;-2.19;69.02;95708.00;5113005;28;20190;-79
2022/01/16 04:22:10;;;;;;;12.60;7.30;;;;;;;-2.15;69.22;95708.78;5118220;27;20031;-79
2022/01/16 04:24:35;;;;;;;9.85;6.80;;;;;;;-2.15;69.43;95716.41;5097556;27;20476;-80
2022/01/16 04:27:01;;;;;;;11.30;6.60;;;;;;;-2.12;69.06;95712.09;5096926;28;20077;-79
2022/01/16 04:29:27;;;;;;;11.30;7.50;;;;;;;-1.98;68.89;95718.63;5111237;28;20023;-79
2022/01/16 04:31:52;;;;;;;13.65;7.55;;;;;;;-1.98;68.16;95716.09;5112718;28;20036;-79
2022/01/16 04:34:17;;;;;;;11.73;7.90;;;;;;;-1.99;68.35;95720.34;5095332;28;20020;-79
2022/01/16 04:36:43;;;;;;;10.80;7.32;;;;;;;-1.91;68.23;95730.38;5127842;27;20108;-79
2022/01/16 04:39:14;;;;;;;11.05;7.32;;;;;;;-1.85;68.07;95728.56;5109696;28;20031;-79
2022/01/16 04:44:23;;;;;;;9.07;6.70;;;;;;;-1.80;67.49;95723.38;5131706;27;20084;-79
2022/01/16 04:46:49;;;;;;;11.07;7.00;;;;;;;-1.77;67.02;95730.13;5114175;27;20035;-79
2022/01/16 04:49:14;;;;;;;11.88;7.30;;;;;;;-1.74;67.16;95722.41;5114137;27;20096;-79
2022/01/16 04:51:39;;;;;;;12.43;7.00;;;;;;;-1.67;66.34;95721.41;5117017;27;20413;-80
2022/01/16 04:54:05;;;;;;;11.20;6.47;;;;;;;-1.65;65.75;95707.75;5093895;28;20497;-79
2022/01/16 04:56:30;;;;;;;11.98;6.72;;;;;;;-1.68;66.16;95702.72;5093437;28;20039;-79
2022/01/16 04:58:56;;;;;;;12.05;7.40;;;;;;;-1.65;65.78;95709.47;5077455;28;20038;-79
2022/01/16 05:01:22;;;;;;;11.20;6.97;;;;;;;-1.65;65.53;95704.38;5114281;27;20031;-79
2022/01/16 05:03:47;;;;;;;10.52;6.80;;;;;;;-1.71;64.51;95701.97;5114066;28;20068;-79
2022/01/16 05:06:13;;;;;;;11.32;6.72;;;;;;;-1.67;64.56;95718.84;5130839;27;20054;-80
2022/01/16 05:08:38;;;;;;;10.73;6.95;;;;;;;-1.69;64.64;95703.63;5121551;28;20024;-80
2022/01/16 05:11:06;;;;;;;10.63;6.85;;;;;;;-1.67;64.16;95712.06;5093670;28;20043;-79
2022/01/16 05:18:43;;;;;;;10.00;6.57;;;;;;;-1.84;64.73;95694.59;5130048;28;20096;-79
2022/01/16 05:21:09;;;;;;;11.75;6.45;;;;;;;-1.69;65.04;95702.78;5130139;28;20039;-79
2022/01/16 05:23:35;;;;;;;12.02;6.88;;;;;;;-1.82;65.66;95705.56;5096870;28;20098;-79
2022/01/16 05:26:01;;;;;;;11.52;7.38;;;;;;;-1.85;65.39;95694.59;5092965;28;20032;-79
2022/01/16 05:28:27;;;;;;;11.32;7.15;;;;;;;-1.87;65.61;95693.78;5110124;28;20148;-79
2022/01/16 05:30:52;;;;;;;12.13;7.25;;;;;;;-1.76;65.36;95708.84;5076694;28;20035;-79
2022/01/16 05:33:18;;;;;;;12.40;7.65;;;;;;;-1.88;65.73;95682.75;5093483;28;20030;-79
2022/01/16 05:35:43;;;;;;;11.55;7.70;;;;;;;-1.79;66.03;95704.66;5108744;28;20039;-79
2022/01/16 05:38:09;;;;;;;11.52;7.78;;;;;;;-1.69;66.14;95720.63;5103952;28;20341;-79
2022/01/16 05:40:35;;;;;;;11.27;7.10;;;;;;;-1.71;65.61;95718.09;5131031;28;20071;-79
2022/01/16 05:43:01;;;;;;;12.18;7.82;;;;;;;-1.74;65.31;95718.16;5125318;28;20020;-78
2022/01/16 05:45:27;;;;;;;12.05;6.90;;;;;;;-1.83;64.70;95721.72;5094031;28;20027;-79
2022/01/16 05:47:52;;;;;;;11.68;7.05;;;;;;;-1.82;65.33;95731.03;5094333;28;20462;-79
2022/01/16 05:50:17;;;;;;;11.10;7.00;;;;;;;-1.81;65.33;95724.25;5112257;28;20024;-79
2022/01/16 05:52:43;;;;;;;16.45;8.10;;;;;;;-1.78;64.77;95726.75;5113687;28;20034;-79
2022/01/16 05:55:09;;;;;;;12.98;7.93;;;;;;;-1.97;64.66;95726.25;5128442;27;20053;-79
2022/01/16 05:57:35;;;;;;;16.50;8.52;;;;;;;-1.91;64.93;95736.31;5113523;28;20043;-78
2022/01/16 06:00:00;;;;;;;13.73;7.72;;;;;;;-1.90;65.14;95750.72;5092326;28;20027;-79
2022/01/16 06:02:26;;;;;;;15.75;8.25;;;;;;;-1.84;64.80;95742.13;5120065;28;20484;-79
2022/01/16 06:04:51;;;;;;;10.73;7.13;;;;;;;-1.94;64.61;95727.91;5123510;27;20324;-80
2022/01/16 06:07:17;;;;;;;12.43;7.18;;;;;;;-1.86;65.13;95746.44;5095850;28;20508;-79
2022/01/16 06:09:43;;;;;;;12.82;7.50;;;;;;;-1.91;65.31;95728.69;5112365;28;20027;-79
2022/01/16 06:12:08;;;;;;;15.38;8.70;;;;;;;-1.99;65.59;95725.44;5127473;28;20043;-80
2022/01/16 06:14:34;;;;;;;12.85;7.97;;;;;;;-1.90;65.45;95743.06;5103902;28;20027;-80
2022/01/16 06:16:59;;;;;;;10.95;7.40;;;;;;;-1.83;65.14;95748.91;5098167;28;20524;-80
2022/01/16 06:19:25;;;;;;;12.10;7.50;;;;;;;-1.84;65.38;95737.88;5077652;28;20089;-79
2022/01/16 06:21:50;;;;;;;10.15;6.88;;;;;;;-1.81;65.12;95732.72;5133269;27;20035;-79
2022/01/16 06:24:16;;;;;;;11.85;7.70;;;;;;;-1.88;65.90;95720.97;5128971;27;20086;-81
2022/01/16 06:26:41;;;;;;;13.38;7.88;;;;;;;-1.84;65.01;95742.13;5094515;28;20032;-80
2022/01/16 06:29:07;;;;;;;11.18;7.00;;;;;;;-1.78;65.09;95748.81;5096156;28;20059;-80
2022/01/16 06:31:32;;;;;;;10.30;7.18;;;;;;;-1.83;64.02;95731.09;5132391;27;20031;-80
2022/01/16 06:34:04;;;;;;;9.98;6.65;;;;;;;-1.83;63.52;95754.00;5135085;27;20028;-80
2022/01/16 06:36:29;;;;;;;11.90;6.78;;;;;;;-1.91;63.36;95756.69;5133461;27;20042;-79
2022/01/16 06:38:55;;;;;;;8.85;6.82;;;;;;;-1.90;62.81;95767.72;5117971;27;20078;-80
2022/01/16 06:41:21;;;;;;;8.93;6.10;;;;;;;-1.93;62.88;95762.69;5109698;27;20085;-80
2022/01/16 06:43:46;;;;;;;11.65;6.95;;;;;;;-1.98;62.82;95764.47;5107670;28;20047;-80
2022/01/16 06:46:12;;;;;;;9.13;6.55;;;;;;;-2.00;63.82;95761.97;5129164;27;20434;-79
2022/01/16 06:48:37;;;;;;;9.52;6.15;;;;;;;-2.03;63.41;95760.31;5133046;27;20503;-80
2022/01/16 06:51:03;;;;;;;10.95;6.65;;;;;;;-1.94;63.27;95772.03;5112140;28;20481;-79
2022/01/16 06:53:28;;;;;;;10.75;6.78;;;;;;;-1.98;63.08;95762.75;5097327;27;20053;-79
2022/01/16 06:55:54;;;;;;;10.82;6.53;;;;;;;-2.01;62.94;95770.47;5133422;27;20035;-80
2022/01/16 06:58:19;;;;;;;10.85;7.07;;;;;;;-1.94;62.99;95766.94;5132858;27;20023;-79
2022/01/16 07:00:46;;;;;;;9.20;6.15;;;;;;;-1.96;62.55;95778.03;5127872;27;20034;-80
2022/01/16 07:03:12;;;;;;;10.10;6.38;;;;;;;-2.01;62.66;95775.56;5128695;27;20031;-79
2022/01/16 07:05:38;;;;;;;12.65;6.65;;;;;;;-2.12;62.41;95778.28;5097504;27;20092;-79
2022/01/16 07:08:03;;;;;;;11.45;6.80;;;;;;;-2.13;63.43;95791.06;5113681;27;20027;-79
2022/01/16 07:10:29;;;;;;;9.63;6.32;;;;;;;-2.20;62.69;95771.66;5117663;27;20051;-80
2022/01/16 07:12:54;;;;;;;9.15;6.55;;;;;;;-2.11;62.69;95784.25;5113866;27;20054;-81
2022/01/16 07:15:20;;;;;;;9.40;6.57;;;;;;;-2.10;62.53;95784.22;5098136;27;20428;-80
2022/01/16 07:17:45;;;;;;;11.25;6.20;;;;;;;-2.19;62.71;95786.09;5133109;27;20480;-81
2022/01/16 07:20:11;;;;;;;9.90;6.68;;;;;;;-2.02;62.31;95789.16;5112096;27;20024;-81
2022/01/16 07:22:36;;;;;;;11.13;6.82;;;;;;;-2.03;62.81;95787.50;5107575;27;20514;-81
2022/01/16 07:25:02;;;;;;;12.68;7.25;;;;;;;-1.99;62.89;95773.81;5132566;27;20041;-81
2022/01/16 07:27:27;;;;;;;11.30;7.00;;;;;;;-1.96;62.90;95773.78;5113360;27;20058;-81
2022/01/16 07:29:53;;;;;;;10.27;6.45;;;;;;;-1.82;62.63;95799.81;5113061;27;20046;-80
2022/01/16 07:32:18;;;;;;;9.65;6.68;;;;;;;-1.83;63.07;95790.50;5111965;27;20050;-79
2022/01/16 07:34:43;;;;;;;10.50;6.60;;;;;;;-1.80;62.98;95776.88;5131329;27;20035;-82
2022/01/16 07:37:09;;;;;;;10.68;6.47;;;;;;;-1.63;63.47;95794.38;5097404;27;20019;-82
2022/01/16 07:39:37;;;;;;;12.02;7.22;;;;;;;-1.54;63.35;95801.00;5133351;27;20023;-81
2022/01/16 07:42:03;;;;;;;12.80;7.15;;;;;;;-1.51;63.53;95796.66;5113533;27;20058;-80
2022/01/16 07:44:28;;;;;;;14.73;7.90;;;;;;;-1.33;63.56;95809.94;5099796;27;20026;-83
2022/01/16 07:46:54;;;;;;;12.52;8.10;;;;;;;-1.32;63.05;95791.22;5115631;27;20487;-80
2022/01/16 07:49:19;;;;;;;11.75;7.22;;;;;;;-1.17;63.04;95803.63;5131941;27;20030;-80
2022/01/16 07:51:45;;;;;;;13.70;7.57;;;;;;;-1.10;62.73;95810.28;5131632;27;20503;-79
2022/01/16 07:54:11;;;;;;;11.32;7.75;;;;;;;-0.97;62.88;95811.69;5115481;27;20030;-79
2022/01/16 07:56:36;;;;;;;12.43;7.85;;;;;;;-0.94;62.43;95813.34;5104200;27;20038;-80
2022/01/16 07:59:01;;;;;;;11.77;8.18;;;;;;;-0.93;62.06;95805.66;5130697;27;20472;-78
2022/01/16 08:01:27;;;;;;;11.75;8.27;;;;;;;-0.72;62.16;95821.38;5131323;27;20023;-79
2022/01/16 08:03:52;;;;;;;13.82;9.18;;;;;;;-0.70;62.45;95811.94;5128832;27;20428;-79
2022/01/16 08:06:18;;;;;;;15.70;9.48;;;;;;;-0.62;61.42;95806.66;5128758;27;20031;-80
2022/01/16 08:08:43;;;;;;;13.10;8.68;;;;;;;-0.46;60.76;95826.69;5131350;27;20031;-79
2022/01/16 08:11:09;;;;;;;12.68;8.80;;;;;;;-0.41;60.97;95807.88;5129327;27;20428;-80
2022/01/16 08:13:38;;;;;;;14.23;8.52;;;;;;;-0.20;60.19;95811.59;5127413;27;20027;-80
2022/01/16 08:16:04;;;;;;;13.88;9.30;;;;;;;-0.21;60.54;95782.69;5113461;27;20088;-79
2022/01/16 08:18:33;;;;;;;15.23;9.75;;;;;;;0.05;60.11;95820.31;5129783;27;20019;-78
2022/01/16 08:20:58;;;;;;;15.75;10.05;;;;;;;-0.03;59.63;95801.78;5128102;27;20184;-78
2022/01/16 08:23:24;;;;;;;16.30;10.15;;;;;;;0.23;59.44;95819.03;5100857;28;20040;-79
2022/01/16 08:25:51;;;;;;;15.80;9.82;;;;;;;0.28;59.51;95804.41;5119649;27;20038;-79
2022/01/16 08:28:20;;;;;;;22.35;15.57;;;;;;;0.47;58.11;95799.63;5109622;27;20119;-82
2022/01/16 08:30:45;;;;;;;14.23;9.98;;;;;;;0.68;57.95;95800.75;5091993;27;20613;-81
2022/01/16 08:33:11;;;;;;;12.95;9.00;;;;;;;0.79;57.86;95806.41;5086202;27;20019;-75
2022/01/16 08:35:36;;;;;;;10.50;7.93;;;;;;;0.87;57.81;95806.19;5117389;27;20035;-81
2022/01/16 08:38:01;;;;;;;12.82;7.95;;;;;;;0.98;57.41;95796.47;5118865;27;20022;-77
2022/01/16 08:40:27;;;;;;;15.57;9.68;;;;;;;1.02;57.50;95789.53;5116392;27;20394;-79
2022/01/16 08:42:53;;;;;;;14.00;9.07;;;;;;;1.08;57.76;95779.09;5119579;27;20023;-78
2022/01/16 08:45:18;;;;;;;12.15;8.40;;;;;;;0.89;56.58;95731.06;5117805;27;20019;-79
2022/01/16 08:47:44;;;;;;;13.95;9.85;;;;;;;0.97;56.62;95761.50;5118049;27;20034;-85
2022/01/16 08:50:09;;;;;;;14.27;10.32;;;;;;;1.24;56.48;95798.22;5115246;27;20042;-85
2022/01/16 08:52:35;;;;;;;13.18;8.85;;;;;;;1.09;56.48;95757.75;5130204;27;20030;-85
2022/01/16 08:55:01;;;;;;;12.13;8.85;;;;;;;1.14;56.12;95781.47;5113460;27;20039;-85
2022/01/16 08:57:27;;;;;;;14.98;9.00;;;;;;;1.16;56.40;95768.63;5113684;27;20042;-85
2022/01/16 08:59:52;;;;;;;14.00;9.93;;;;;;;1.10;56.05;95772.22;5129891;27;20019;-84
2022/01/16 09:02:18;;;;;;;16.25;9.98;;;;;;;1.16;55.81;95779.69;5113991;27;20080;-84
2022/01/16 09:04:43;;;;;;;16.45;10.23;;;;;;;0.95;56.48;95765.00;5130747;27;20039;-84
2022/01/16 09:07:09;;;;;;;14.70;9.43;;;;;;;0.99;56.89;95762.31;5131033;28;20027;-84
2022/01/16 09:09:34;;;;;;;16.27;10.23;;;;;;;1.10;56.41;95767.94;5132194;27;20027;-84
2022/01/16 09:12:00;;;;;;;14.70;9.77;;;;;;;1.08;56.42;95767.13;5131135;28;20110;-85
2022/01/16 09:14:25;;;;;;;15.23;10.23;;;;;;;0.98;57.44;95752.13;5096988;28;20381;-85
2022/01/16 09:16:51;;;;;;;15.43;10.05;;;;;;;1.02;56.83;95767.31;5130793;28;20058;-86
2022/01/16 09:19:16;;;;;;;15.88;10.52;;;;;;;1.14;56.83;95766.09;5114054;28;20412;-85
2022/01/16 09:21:41;;;;;;;17.27;10.40;;;;;;;1.37;56.61;95769.69;5111680;27;20413;-82
2022/01/16 09:24:07;;;;;;;18.88;10.80;;;;;;;1.45;56.12;95765.16;5123930;27;20027;-82
2022/01/16 09:26:32;;;;;;;16.95;11.90;;;;;;;1.54;55.88;95758.03;5108294;28;20039;-81
2022/01/16 09:28:58;;;;;;;23.20;15.00;;;;;;;1.50;55.81;95738.50;5122062;27;20023;-82
2022/01/16 09:31:24;;;;;;;20.40;13.95;;;;;;;1.48;56.25;95749.72;5094178;28;20028;-81
2022/01/16 09:33:49;;;;;;;19.63;13.23;;;;;;;1.66;56.99;95759.34;5092294;28;20036;-79
2022/01/16 09:36:15;;;;;;;27.25;16.25;;;;;;;1.70;56.53;95737.88;5111013;28;20036;-84
2022/01/16 09:38:41;;;;;;;24.30;16.65;;;;;;;1.87;56.95;95744.16;5104031;28;20051;-89
2022/01/16 09:41:07;;;;;;;27.23;17.67;;;;;;;1.90;55.38;95747.44;5111043;28;20102;-80
2022/01/16 09:43:34;;;;;;;32.72;18.83;;;;;;;1.93;55.53;95746.50;5127998;28;20027;-83
2022/01/16 09:45:59;;;;;;;21.38;14.15;;;;;;;2.02;54.93;95741.06;5130079;28;20039;-86
2022/01/16 09:48:25;;;;;;;23.45;14.38;;;;;;;1.95;55.48;95737.00;5121821;27;20023;-80
2022/01/16 09:50:50;;;;;;;18.38;13.50;;;;;;;1.81;55.39;95736.66;5151926;27;20499;-82
2022/01/16 09:53:16;;;;;;;19.52;13.73;;;;;;;1.81;55.34;95742.59;5121894;27;20035;-85
2022/01/16 09:55:41;;;;;;;22.17;14.20;;;;;;;1.66;56.48;95735.44;5104465;27;20045;-81
2022/01/16 09:58:07;;;;;;;20.70;13.65;;;;;;;1.62;55.19;95727.03;5134537;27;20136;-85
2022/01/16 10:00:32;;;;;;;21.23;14.48;;;;;;;1.45;56.34;95691.75;5116978;27;20023;-86
2022/01/16 10:02:58;;;;;;;21.48;14.80;;;;;;;1.79;54.83;95723.91;5130465;27;20035;-79
2022/01/16 10:05:35;;;;;;;22.95;14.90;;;;;;;1.82;55.37;95715.28;5116689;27;20039;-81
2022/01/16 10:08:08;;;;;;;21.98;15.02;;;;;;;1.53;55.66;95681.22;5116227;27;20023;-77
2022/01/16 10:10:35;;;;;;;23.77;15.15;;;;;;;1.58;55.80;95686.19;5091148;28;20144;-84
2022/01/16 10:13:07;;;;;;;21.60;14.90;;;;;;;1.67;55.69;95714.91;5106804;27;20098;-78
2022/01/16 10:15:32;;;;;;;20.20;14.15;;;;;;;1.77;55.30;95705.19;5109218;27;20024;-80
2022/01/16 10:17:59;;;;;;;22.80;15.38;;;;;;;1.76;55.20;95690.72;5121449;27;20099;-75
2022/01/16 10:20:25;;;;;;;24.55;15.80;;;;;;;1.76;55.46;95696.66;5120013;27;20446;-77
2022/01/16 10:22:55;;;;;;;20.30;14.35;;;;;;;1.79;55.33;95696.56;5105974;28;20027;-79
2022/01/16 10:25:38;;;;;;;23.00;15.40;;;;;;;1.94;55.30;95694.34;5112596;28;20020;-79
2022/01/16 10:28:10;;;;;;;30.55;20.20;;;;;;;1.60;55.04;95639.16;5126000;27;20023;-79
2022/01/16 10:30:40;;;;;;;23.85;17.83;;;;;;;1.92;54.93;95698.69;5112766;27;20466;-78
2022/01/16 10:33:13;;;;;;;24.95;16.13;;;;;;;1.94;56.04;95686.66;5132936;27;20032;-78
2022/01/16 10:35:39;;;;;;;33.47;22.67;;;;;;;2.03;55.82;95681.19;5132773;27;20611;-75
2022/01/16 10:38:05;;;;;;;35.08;20.83;;;;;;;2.07;55.40;95675.09;5120568;27;20496;-75
2022/01/16 10:40:32;;;;;;;34.10;23.85;;;;;;;2.19;55.33;95681.50;5114668;27;20045;-78
2022/01/16 10:42:58;;;;;;;35.80;22.00;;;;;;;2.23;55.27;95676.22;5097585;27;20096;-78
2022/01/16 10:45:29;;;;;;;27.33;16.77;;;;;;;2.19;54.82;95671.25;5113678;27;20771;-76
2022/01/16 10:47:58;;;;;;;22.55;15.57;;;;;;;2.19;53.99;95666.94;5132757;27;20023;-76
2022/01/16 10:50:34;;;;;;;26.05;16.95;;;;;;;2.13;55.11;95661.22;5095999;28;20524;-77
2022/01/16 10:53:03;;;;;;;26.88;19.77;;;;;;;2.19;54.86;95674.63;5112843;27;20033;-79
2022/01/16 10:55:47;;;;;;;25.05;17.95;;;;;;;2.05;54.77;95651.22;5139420;27;20027;-78
2022/01/16 10:58:41;;;;;;;24.10;16.70;;;;;;;2.01;54.66;95634.31;5132687;27;20428;-77
2022/01/16 11:01:14;;;;;;;23.08;15.77;;;;;;;2.31;53.44;95657.97;5120512;27;20092;-79
2022/01/16 11:03:45;;;;;;;26.08;16.10;;;;;;;2.29;54.70;95652.06;5124158;27;20035;-82
2022/01/16 11:06:14;;;;;;;27.55;18.45;;;;;;;2.38;53.83;95656.03;5097077;27;20074;-77
2022/01/16 11:08:40;;;;;;;24.10;15.98;;;;;;;2.38;53.83;95653.47;5125381;27;20107;-75
2022/01/16 11:11:07;;;;;;;28.48;17.73;;;;;;;2.44;54.12;95653.22;5132904;27;20072;-80
2022/01/16 11:13:34;;;;;;;27.27;17.23;;;;;;;2.23;53.41;95627.50;5133012;27;20481;-78
2022/01/16 11:16:03;;;;;;;24.65;16.17;;;;;;;2.28;54.17;95639.28;5127389;27;20042;-80
2022/01/16 11:18:29;;;;;;;26.88;16.77;;;;;;;2.29;54.12;95646.13;5119327;27;20027;-80
2022/01/16 11:23:49;;;;;;;24.02;17.38;;;;;;;2.47;54.17;95637.72;5100152;28;20043;-79
2022/01/16 11:26:16;;;;;;;25.60;16.98;;;;;;;2.51;53.81;95638.44;5130310;27;20038;-78
2022/01/16 11:28:42;;;;;;;24.85;16.23;;;;;;;2.57;53.91;95631.34;5133455;27;20034;-81
2022/01/16 11:31:09;;;;;;;23.90;15.73;;;;;;;2.60;53.17;95630.41;5124835;27;20032;-82
2022/01/16 11:33:35;;;;;;;26.77;16.45;;;;;;;2.67;53.17;95627.53;5094717;28;20512;-82
2022/01/16 11:36:12;;;;;;;26.23;15.80;;;;;;;2.72;52.46;95629.06;5094888;28;20126;-79
2022/01/16 11:38:49;;;;;;;23.80;16.10;;;;;;;2.52;53.33;95611.91;5111586;28;20046;-79
2022/01/16 11:41:16;;;;;;;24.50;16.27;;;;;;;2.56;53.47;95616.84;5121059;27;20023;-81
2022/01/16 11:43:48;;;;;;;25.35;16.92;;;;;;;2.67;53.18;95611.28;5131851;27;20725;-82
2022/01/16 11:46:16;;;;;;;26.88;16.38;;;;;;;2.64;52.90;95607.09;5130065;27;20156;-82
2022/01/16 11:49:01;;;;;;;26.50;17.98;;;;;;;2.65;54.13;95607.97;5133310;27;20019;-81
2022/01/16 11:51:33;;;;;;;28.02;16.10;;;;;;;2.71;53.24;95602.59;5117633;27;20035;-80
2022/01/16 11:54:01;;;;;;;23.58;15.88;;;;;;;2.83;53.10;95606.41;5113792;27;20413;-81
2022/01/16 11:56:41;;;;;;;21.20;15.02;;;;;;;2.92;52.88;95611.16;5116135;27;20243;-81
2022/01/16 11:59:23;;;;;;;24.23;15.68;;;;;;;2.96;53.42;95606.75;5118133;27;20034;-79
2022/01/16 12:01:56;;;;;;;22.85;14.98;;;;;;;3.05;52.25;95602.06;5115852;27;20047;-79
2022/01/16 12:04:30;;;;;;;23.02;15.65;;;;;;;2.93;52.85;95600.00;5111545;27;20475;-79
2022/01/16 12:07:22;;;;;;;22.95;15.85;;;;;;;2.98;52.32;95595.53;5131367;27;20034;-80
2022/01/16 12:09:49;;;;;;;20.40;15.57;;;;;;;3.02;51.98;95591.94;5131307;27;20066;-80
2022/01/16 12:12:15;;;;;;;23.08;15.38;;;;;;;3.07;51.90;95591.75;5129361;27;20084;-80
2022/01/16 12:15:03;;;;;;;22.95;16.40;;;;;;;3.06;52.26;95592.63;5115612;27;20039;-80